createdAt,value
2023-01-31T00:01:40.072Z,99990.72
2023-01-31T00:04:09.658Z,99995.53
2023-01-31T00:06:40.234Z,100009.50
2023-01-31T00:09:09.093Z,100012.91
2023-01-31T00:11:36.305Z,100004.19
2023-01-31T00:14:04.877Z,99994.75
2023-01-31T00:16:31.998Z,100003.00
2023-01-31T00:18:58.712Z,99990.09
2023-01-31T00:21:29.943Z,100000.44
2023-01-31T00:23:58.116Z,99996.88
2023-01-31T00:26:30.556Z,100006.16
2023-01-31T00:28:58.431Z,99983.97
2023-01-31T00:31:27.591Z,99981.34
2023-01-31T00:33:55.850Z,99978.38
2023-01-31T00:36:25.626Z,99961.22
2023-01-31T00:38:55.467Z,99937.88
2023-01-31T00:41:23.678Z,99933.88
2023-01-31T00:43:51.148Z,99934.97
2023-01-31T00:46:20.443Z,99932.19
2023-01-31T00:48:47.290Z,99922.78
2023-01-31T00:51:13.909Z,99946.50
2023-01-31T00:53:40.567Z,99944.59
2023-01-31T00:56:10.606Z,99936.50
2023-01-31T00:58:39.932Z,99944.06
2023-01-31T01:01:17.179Z,99951.47
2023-01-31T01:03:44.873Z,99935.59
2023-01-31T01:06:12.299Z,99937.31
2023-01-31T01:08:40.508Z,99931.50
2023-01-31T01:11:09.735Z,99938.59
2023-01-31T01:13:37.384Z,99927.88
2023-01-31T01:16:12.727Z,99930.53
2023-01-31T01:18:40.074Z,99943.94
2023-01-31T01:21:12.485Z,99937.88
2023-01-31T01:23:40.869Z,99934.88
2023-01-31T01:26:14.867Z,99926.22
2023-01-31T01:28:41.515Z,99942.94
2023-01-31T01:31:10.628Z,99931.44
2023-01-31T01:33:37.315Z,99952.13
2023-01-31T01:36:06.402Z,99950.41
2023-01-31T01:38:36.492Z,99935.22
2023-01-31T01:41:05.000Z,99971.03
2023-01-31T01:43:55.552Z,99968.38
2023-01-31T01:46:31.817Z,99961.31
2023-01-31T01:49:06.570Z,99981.19
2023-01-31T01:51:34.020Z,99971.97
2023-01-31T01:54:04.943Z,99977.59
2023-01-31T01:56:38.916Z,100016.50
2023-01-31T01:59:09.058Z,99991.44
2023-01-31T02:01:38.269Z,99993.91
2023-01-31T02:04:07.631Z,99997.63
2023-01-31T02:06:34.624Z,99998.47
2023-01-31T02:09:04.052Z,100035.13
2023-01-31T02:11:32.282Z,100002.38
2023-01-31T02:14:10.857Z,100018.69
2023-01-31T02:16:37.526Z,100032.28
2023-01-31T02:19:08.858Z,100014.06
2023-01-31T02:22:02.779Z,100028.88
2023-01-31T02:24:51.999Z,100040.56
2023-01-31T02:27:34.357Z,100028.66
2023-01-31T02:30:15.407Z,100035.34
2023-01-31T02:32:54.030Z,100030.75
2023-01-31T02:35:42.322Z,100045.38
2023-01-31T02:38:25.429Z,100041.78
2023-01-31T02:41:06.081Z,100041.97
2023-01-31T02:44:16.987Z,100031.53
2023-01-31T02:46:57.698Z,100047.38
2023-01-31T02:49:36.915Z,100047.38
2023-01-31T02:52:18.743Z,100045.19
2023-01-31T02:55:19.112Z,100050.69
2023-01-31T02:57:49.267Z,100046.31
2023-01-31T03:00:17.459Z,100052.50
2023-01-31T03:02:44.385Z,100058.88
2023-01-31T03:05:15.630Z,100069.03
2023-01-31T03:07:47.971Z,100070.06
2023-01-31T03:10:37.179Z,100075.00
2023-01-31T03:13:26.364Z,100074.81
2023-01-31T03:16:25.629Z,100075.09
2023-01-31T03:18:52.183Z,100081.47
2023-01-31T03:21:28.540Z,100078.91
2023-01-31T03:23:57.393Z,100085.16
2023-01-31T03:26:26.038Z,100093.53
2023-01-31T03:28:57.257Z,100101.59
2023-01-31T03:31:29.695Z,100103.41
2023-01-31T03:34:02.085Z,100102.25
2023-01-31T03:36:56.003Z,100111.97
2023-01-31T03:39:37.868Z,100122.69
2023-01-31T03:42:13.508Z,100109.38
2023-01-31T03:44:43.107Z,100107.47
2023-01-31T03:47:33.197Z,100108.53
2023-01-31T03:50:06.556Z,100108.72
2023-01-31T03:52:38.467Z,100123.91
2023-01-31T03:55:17.105Z,100132.25
2023-01-31T03:57:49.004Z,100128.09
2023-01-31T04:00:19.021Z,100133.78
2023-01-31T04:02:52.767Z,100143.75
2023-01-31T04:05:24.885Z,100140.69
2023-01-31T04:07:51.507Z,100149.03
2023-01-31T04:10:19.750Z,100143.03
2023-01-31T04:12:47.084Z,100155.28
2023-01-31T04:15:14.334Z,100166.06
2023-01-31T04:17:40.865Z,100166.06
2023-01-31T04:20:09.669Z,100162.59
2023-01-31T04:22:36.233Z,100172.44
2023-01-31T04:25:03.503Z,100163.41
2023-01-31T04:27:30.026Z,100170.56
2023-01-31T04:29:56.619Z,100192.47
2023-01-31T04:32:25.925Z,100195.06
2023-01-31T04:34:52.465Z,100187.75
2023-01-31T04:37:19.023Z,100199.34
2023-01-31T04:39:45.542Z,100210.13
2023-01-31T04:42:12.251Z,100215.53
2023-01-31T04:44:39.198Z,100215.66
2023-01-31T04:47:05.788Z,100210.22
2023-01-31T04:49:32.993Z,100211.16
2023-01-31T04:51:59.628Z,100213.22
2023-01-31T04:54:26.261Z,100229.00
2023-01-31T04:56:52.854Z,100229.69
2023-01-31T04:59:19.407Z,100247.84
2023-01-31T05:01:45.936Z,100250.06
2023-01-31T05:04:12.773Z,100260.78
2023-01-31T05:06:39.356Z,100260.50
2023-01-31T05:09:06.669Z,100257.84
2023-01-31T05:11:33.376Z,100258.28
2023-01-31T05:13:59.964Z,100243.56
2023-01-31T05:16:27.560Z,100245.34
2023-01-31T05:18:54.239Z,100244.88
2023-01-31T05:21:20.880Z,100241.63
2023-01-31T05:23:47.802Z,100237.34
2023-01-31T05:26:14.427Z,100260.66
2023-01-31T05:28:41.925Z,100241.09
2023-01-31T05:31:09.131Z,100248.81
2023-01-31T05:33:36.296Z,100252.41
2023-01-31T05:36:03.847Z,100239.13
2023-01-31T05:38:31.253Z,100250.19
2023-01-31T05:40:57.884Z,100260.06
2023-01-31T05:43:24.407Z,100254.06
2023-01-31T05:45:51.034Z,100262.97
2023-01-31T05:48:17.601Z,100272.81
2023-01-31T05:50:44.222Z,100261.59
2023-01-31T05:53:11.222Z,100268.63
2023-01-31T05:55:38.138Z,100272.94
2023-01-31T05:58:04.730Z,100280.19
2023-01-31T06:00:31.346Z,100278.47
2023-01-31T06:02:59.717Z,100284.72
2023-01-31T06:05:27.213Z,100293.72
2023-01-31T06:07:53.948Z,100286.78
2023-01-31T06:10:21.226Z,100291.94
2023-01-31T06:12:48.151Z,100294.84
2023-01-31T06:15:14.802Z,100292.97
2023-01-31T06:17:41.365Z,100298.00
2023-01-31T06:20:08.620Z,100307.00
2023-01-31T06:22:35.176Z,100305.91
2023-01-31T06:25:01.868Z,100303.59
2023-01-31T06:27:32.149Z,100299.38
2023-01-31T06:30:00.798Z,100307.28
2023-01-31T06:32:27.401Z,100305.44
2023-01-31T06:34:54.023Z,100318.72
2023-01-31T06:37:20.643Z,100302.03
2023-01-31T06:39:47.186Z,100320.81
2023-01-31T06:42:13.824Z,100313.25
2023-01-31T06:44:40.451Z,100319.44
2023-01-31T06:47:07.056Z,100311.22
2023-01-31T06:49:33.609Z,100319.53
2023-01-31T06:52:00.170Z,100307.28
2023-01-31T06:54:26.814Z,100321.22
2023-01-31T06:56:53.798Z,100321.22
2023-01-31T06:59:20.444Z,100317.91
2023-01-31T07:01:47.070Z,100316.34
2023-01-31T07:04:13.900Z,100332.28
2023-01-31T07:06:40.667Z,100311.72
2023-01-31T07:09:07.684Z,100331.94
2023-01-31T07:11:34.363Z,100325.38
2023-01-31T07:14:00.925Z,100333.06
2023-01-31T07:16:27.585Z,100321.16
2023-01-31T07:18:55.124Z,100332.28
2023-01-31T07:21:23.273Z,100322.41
2023-01-31T07:23:51.019Z,100338.03
2023-01-31T07:26:18.295Z,100334.41
2023-01-31T07:28:44.888Z,100346.59
2023-01-31T07:31:13.785Z,100342.91
2023-01-31T07:33:41.192Z,100347.13
2023-01-31T07:36:08.774Z,100352.06
2023-01-31T07:38:35.550Z,100354.66
2023-01-31T07:41:04.170Z,100358.00
2023-01-31T07:43:32.599Z,100361.25
2023-01-31T07:45:59.491Z,100359.25
2023-01-31T07:48:26.216Z,100359.94
2023-01-31T07:50:59.448Z,100363.88
2023-01-31T07:53:28.672Z,100373.88
2023-01-31T07:55:57.429Z,100370.69
2023-01-31T07:58:24.082Z,100370.13
2023-01-31T08:01:12.114Z,100375.75
2023-01-31T08:03:38.668Z,100396.06
2023-01-31T08:06:13.148Z,100397.75
2023-01-31T08:08:42.274Z,100407.28
2023-01-31T08:11:08.841Z,100390.75
2023-01-31T08:13:35.868Z,100411.50
2023-01-31T08:16:04.117Z,100399.69
2023-01-31T08:18:31.054Z,100432.53
2023-01-31T08:20:58.344Z,100431.38
2023-01-31T08:23:25.117Z,100440.44
2023-01-31T08:25:51.680Z,100445.56
2023-01-31T08:28:18.244Z,100435.22
2023-01-31T08:30:52.916Z,100453.50
2023-01-31T08:33:26.168Z,100457.47
2023-01-31T08:35:53.275Z,100470.78
2023-01-31T08:38:20.083Z,100467.47
2023-01-31T08:40:46.916Z,100479.63
2023-01-31T08:43:13.924Z,100480.44
2023-01-31T08:45:40.930Z,100483.31
2023-01-31T08:48:07.687Z,100483.31
2023-01-31T08:50:35.000Z,100483.03
2023-01-31T08:53:03.791Z,100480.34
2023-01-31T08:55:31.861Z,100501.50
2023-01-31T08:58:00.365Z,100499.31
2023-01-31T09:00:28.072Z,100499.31
2023-01-31T09:02:56.863Z,100497.06
2023-01-31T09:05:25.167Z,100492.19
2023-01-31T09:07:51.811Z,100491.06
2023-01-31T09:10:19.603Z,100500.25
2023-01-31T09:12:46.702Z,100496.03
2023-01-31T09:15:13.383Z,100497.84
2023-01-31T09:17:40.913Z,100490.78
2023-01-31T09:20:10.201Z,100490.00
2023-01-31T09:22:37.287Z,100490.81
2023-01-31T09:25:04.874Z,100487.75
2023-01-31T09:27:32.189Z,100491.41
2023-01-31T09:29:58.855Z,100488.00
2023-01-31T09:32:25.538Z,100484.88
2023-01-31T09:34:52.200Z,100488.28
2023-01-31T09:37:18.876Z,100482.97
2023-01-31T09:39:45.465Z,100493.41
2023-01-31T09:42:36.806Z,100508.25
2023-01-31T09:45:11.887Z,100501.78
2023-01-31T09:47:46.807Z,100515.34
2023-01-31T09:50:46.251Z,100507.25
2023-01-31T09:53:15.104Z,100525.53
2023-01-31T09:55:55.097Z,100520.25
2023-01-31T09:58:49.616Z,100518.97
2023-01-31T10:01:24.323Z,100515.63
2023-01-31T10:04:29.770Z,100523.34
2023-01-31T10:06:56.248Z,100530.69
2023-01-31T10:09:45.191Z,100534.34
2023-01-31T10:12:23.556Z,100527.00
2023-01-31T10:14:55.970Z,100529.28
2023-01-31T10:17:38.529Z,100528.16
2023-01-31T10:20:23.159Z,100524.38
2023-01-31T10:22:57.594Z,100525.16
2023-01-31T10:25:32.403Z,100522.94
2023-01-31T10:28:09.818Z,100514.34
2023-01-31T10:31:08.611Z,100528.59
2023-01-31T10:33:52.846Z,100528.75
2023-01-31T10:36:29.436Z,100516.00
2023-01-31T10:39:05.283Z,100507.50
2023-01-31T10:41:41.176Z,100510.91
2023-01-31T10:44:17.934Z,100509.94
2023-01-31T10:46:47.609Z,100519.78
2023-01-31T10:49:15.433Z,100519.75
2023-01-31T10:52:17.069Z,100532.59
2023-01-31T10:55:15.942Z,100522.53
2023-01-31T10:57:43.108Z,100509.53
2023-01-31T11:00:23.369Z,100517.97
2023-01-31T11:02:50.133Z,100510.91
2023-01-31T11:05:21.008Z,100494.13
2023-01-31T11:07:48.623Z,100485.31
2023-01-31T11:10:50.778Z,100490.78
2023-01-31T11:13:23.509Z,100501.03
2023-01-31T11:15:53.770Z,100485.00
2023-01-31T11:18:34.598Z,100477.06
2023-01-31T11:21:03.613Z,100475.53
2023-01-31T11:23:34.025Z,100477.28
2023-01-31T11:26:01.077Z,100473.97
2023-01-31T11:28:35.797Z,100452.69
2023-01-31T11:31:05.340Z,100471.38
2023-01-31T11:33:44.478Z,100487.63
2023-01-31T11:36:23.905Z,100486.88
2023-01-31T11:38:51.380Z,100488.72
2023-01-31T11:41:26.593Z,100483.00
2023-01-31T11:44:23.184Z,100474.97
2023-01-31T11:46:56.876Z,100470.66
2023-01-31T11:49:32.651Z,100464.59
2023-01-31T11:52:12.925Z,100451.41
2023-01-31T11:54:43.979Z,100451.13
2023-01-31T11:57:26.083Z,100453.69
2023-01-31T11:59:57.384Z,100458.19
2023-01-31T12:02:39.973Z,100459.34
2023-01-31T12:05:16.095Z,100457.22
2023-01-31T12:07:53.351Z,100456.47
2023-01-31T12:10:34.467Z,100456.91
2023-01-31T12:13:18.854Z,100451.34
2023-01-31T12:16:01.007Z,100451.16
2023-01-31T12:18:46.399Z,100456.22
2023-01-31T12:21:24.845Z,100455.69
2023-01-31T12:24:03.084Z,100452.19
2023-01-31T12:26:43.831Z,100471.38
2023-01-31T12:29:25.772Z,100461.88
2023-01-31T12:32:24.718Z,100466.34
2023-01-31T12:35:10.258Z,100461.25
2023-01-31T12:37:53.425Z,100470.56
2023-01-31T12:40:40.531Z,100476.94
2023-01-31T12:43:41.069Z,100476.22
2023-01-31T12:46:13.513Z,100476.84
2023-01-31T12:49:06.992Z,100491.69
2023-01-31T12:51:33.536Z,100490.63
2023-01-31T12:54:11.898Z,100488.06
2023-01-31T12:57:03.168Z,100489.47
2023-01-31T12:59:56.756Z,100479.75
2023-01-31T13:02:43.943Z,100499.06
2023-01-31T13:05:22.715Z,100515.97
2023-01-31T13:07:58.111Z,100516.75
2023-01-31T13:10:35.549Z,100528.78
2023-01-31T13:13:03.236Z,100537.03
2023-01-31T13:15:50.964Z,100539.75
2023-01-31T13:18:17.948Z,100541.91
2023-01-31T13:20:50.204Z,100551.25
2023-01-31T13:23:42.813Z,100541.97
2023-01-31T13:26:18.999Z,100555.25
2023-01-31T13:28:54.805Z,100549.53
2023-01-31T13:31:27.133Z,100541.50
2023-01-31T13:34:09.060Z,100561.25
2023-01-31T13:36:59.829Z,100571.84
2023-01-31T13:39:34.765Z,100574.53
2023-01-31T13:42:01.605Z,100566.81
2023-01-31T13:44:28.170Z,100580.97
2023-01-31T13:47:16.768Z,100576.94
2023-01-31T13:49:55.383Z,100580.22
2023-01-31T13:52:31.942Z,100586.22
2023-01-31T13:55:21.617Z,100577.03
2023-01-31T13:58:03.715Z,100581.25
2023-01-31T14:00:41.067Z,100570.53
2023-01-31T14:03:14.681Z,100582.44
2023-01-31T14:05:41.218Z,100580.13
2023-01-31T14:08:26.356Z,100577.44
2023-01-31T14:11:27.367Z,100594.44
2023-01-31T14:14:08.729Z,100588.69
2023-01-31T14:16:37.303Z,100592.69
2023-01-31T14:19:21.746Z,100598.09
2023-01-31T14:22:03.255Z,100598.88
2023-01-31T14:24:53.132Z,100600.66
2023-01-31T14:27:39.495Z,100603.66
2023-01-31T14:30:06.089Z,100604.84
2023-01-31T14:32:38.566Z,100606.00
2023-01-31T14:35:47.831Z,100604.72
2023-01-31T14:38:23.384Z,100607.22
2023-01-31T14:41:19.187Z,100604.22
2023-01-31T14:44:29.345Z,100608.38
2023-01-31T14:47:30.866Z,100603.63
2023-01-31T14:50:11.565Z,100594.66
2023-01-31T14:52:55.925Z,100604.09
2023-01-31T14:55:28.105Z,100599.44
2023-01-31T14:58:17.892Z,100607.44
2023-01-31T15:00:55.206Z,100603.16
2023-01-31T15:04:01.141Z,100599.03
2023-01-31T15:06:40.658Z,100601.16
2023-01-31T15:09:18.306Z,100606.34
2023-01-31T15:11:47.319Z,100598.22
2023-01-31T15:14:36.500Z,100598.41
2023-01-31T15:17:09.886Z,100600.53
2023-01-31T15:19:46.826Z,100605.72
2023-01-31T15:22:17.076Z,100610.56
2023-01-31T15:24:51.471Z,100615.44
2023-01-31T15:27:24.719Z,100614.50
2023-01-31T15:30:15.839Z,100621.53
2023-01-31T15:33:02.906Z,100616.13
2023-01-31T15:35:37.221Z,100617.94
2023-01-31T15:38:25.012Z,100621.75
2023-01-31T15:41:22.900Z,100613.94
2023-01-31T15:43:55.367Z,100607.47
2023-01-31T15:46:29.739Z,100598.91
2023-01-31T15:48:57.591Z,100601.66
2023-01-31T15:51:24.964Z,100592.31
2023-01-31T15:54:06.302Z,100589.84
2023-01-31T15:56:37.375Z,100590.72
2023-01-31T15:59:12.728Z,100599.44
2023-01-31T16:01:39.786Z,100602.47
2023-01-31T16:04:06.584Z,100600.03
2023-01-31T16:06:36.097Z,100601.16
2023-01-31T16:09:05.111Z,100604.38
2023-01-31T16:11:34.202Z,100602.25
2023-01-31T16:14:07.647Z,100604.84
2023-01-31T16:16:36.114Z,100600.25
2023-01-31T16:19:03.825Z,100599.72
2023-01-31T16:21:48.493Z,100603.81
2023-01-31T16:24:17.437Z,100603.66
2023-01-31T16:27:01.760Z,100613.81
2023-01-31T16:29:47.307Z,100608.13
2023-01-31T16:32:37.001Z,100611.16
2023-01-31T16:35:25.023Z,100613.06
2023-01-31T16:38:07.960Z,100617.97
2023-01-31T16:40:45.585Z,100615.38
2023-01-31T16:43:29.961Z,100610.47
2023-01-31T16:46:03.215Z,100623.97
2023-01-31T16:48:32.912Z,100625.25
2023-01-31T16:51:20.564Z,100626.97
2023-01-31T16:54:09.874Z,100620.88
2023-01-31T16:56:36.506Z,100614.78
2023-01-31T16:59:03.084Z,100615.53
2023-01-31T17:01:33.695Z,100616.56
2023-01-31T17:04:00.240Z,100608.84
2023-01-31T17:06:27.276Z,100617.59
2023-01-31T17:08:54.328Z,100617.72
2023-01-31T17:11:40.923Z,100617.78
2023-01-31T17:14:08.242Z,100613.91
2023-01-31T17:16:34.831Z,100619.22
2023-01-31T17:19:01.480Z,100622.59
2023-01-31T17:21:29.178Z,100624.56
2023-01-31T17:23:55.746Z,100625.59
2023-01-31T17:26:23.547Z,100617.19
2023-01-31T17:29:00.817Z,100614.44
2023-01-31T17:31:29.598Z,100623.34
2023-01-31T17:33:56.611Z,100627.97
2023-01-31T17:36:23.495Z,100626.34
2023-01-31T17:38:51.830Z,100621.00
2023-01-31T17:41:20.688Z,100618.47
2023-01-31T17:43:47.312Z,100608.84
2023-01-31T17:46:15.788Z,100622.31
2023-01-31T17:48:42.654Z,100616.13
2023-01-31T17:51:09.470Z,100607.03
2023-01-31T17:53:47.725Z,100614.06
2023-01-31T17:56:16.547Z,100614.06
2023-01-31T17:58:43.112Z,100612.47
2023-01-31T18:01:10.861Z,100601.88
2023-01-31T18:03:37.655Z,100602.66
2023-01-31T18:06:06.216Z,100603.59
2023-01-31T18:08:33.048Z,100597.41
2023-01-31T18:11:15.004Z,100591.59
2023-01-31T18:13:43.152Z,100586.41
2023-01-31T18:16:13.153Z,100584.72
2023-01-31T18:18:40.625Z,100591.13
2023-01-31T18:21:16.597Z,100592.84
2023-01-31T18:23:43.637Z,100596.44
2023-01-31T18:26:11.365Z,100596.44
2023-01-31T18:28:38.049Z,100587.63
2023-01-31T18:31:10.469Z,100584.03
2023-01-31T18:33:37.642Z,100588.31
2023-01-31T18:36:06.043Z,100589.41
2023-01-31T18:38:32.919Z,100590.44
2023-01-31T18:41:00.303Z,100595.75
2023-01-31T18:43:29.730Z,100589.75
2023-01-31T18:45:56.362Z,100593.34
2023-01-31T18:48:22.975Z,100599.63
2023-01-31T18:50:49.635Z,100598.75
2023-01-31T18:53:16.207Z,100608.44
2023-01-31T18:55:42.764Z,100601.66
2023-01-31T18:58:09.379Z,100602.59
2023-01-31T19:00:36.022Z,100594.44
2023-01-31T19:03:02.654Z,100590.00
2023-01-31T19:05:29.318Z,100587.28
2023-01-31T19:07:57.027Z,100594.13
2023-01-31T19:10:23.655Z,100596.97
2023-01-31T19:12:50.188Z,100599.50
2023-01-31T19:15:16.792Z,100596.84
2023-01-31T19:17:43.351Z,100595.00
2023-01-31T19:20:10.755Z,100597.66
2023-01-31T19:22:37.336Z,100600.13
2023-01-31T19:25:05.535Z,100600.06
2023-01-31T19:27:32.135Z,100598.41
2023-01-31T19:29:59.902Z,100606.13
2023-01-31T19:32:29.097Z,100598.88
2023-01-31T19:34:55.731Z,100598.28
2023-01-31T19:37:22.315Z,100591.59
2023-01-31T19:39:49.115Z,100595.72
2023-01-31T19:42:15.704Z,100587.47
2023-01-31T19:44:42.267Z,100581.78
2023-01-31T19:47:08.886Z,100597.69
2023-01-31T19:49:35.424Z,100581.78
2023-01-31T19:52:02.108Z,100588.72
2023-01-31T19:54:28.656Z,100585.31
2023-01-31T19:56:55.250Z,100590.72
2023-01-31T19:59:21.810Z,100595.53
2023-01-31T20:01:48.413Z,100596.66
2023-01-31T20:04:15.011Z,100582.41
2023-01-31T20:06:41.720Z,100585.91
2023-01-31T20:09:09.711Z,100596.66
2023-01-31T20:11:37.689Z,100592.97
2023-01-31T20:14:04.654Z,100589.72
2023-01-31T20:16:31.414Z,100587.22
2023-01-31T20:19:00.802Z,100584.75
2023-01-31T20:21:27.648Z,100581.38
2023-01-31T20:23:54.267Z,100586.88
2023-01-31T20:26:22.818Z,100594.34
2023-01-31T20:28:49.862Z,100589.53
2023-01-31T20:31:17.580Z,100585.59
2023-01-31T20:33:44.291Z,100594.88
2023-01-31T20:36:11.607Z,100589.19
2023-01-31T20:38:38.982Z,100585.25
2023-01-31T20:41:08.503Z,100588.38
2023-01-31T20:43:35.392Z,100587.78
2023-01-31T20:46:10.638Z,100586.13
2023-01-31T20:48:38.329Z,100587.34
2023-01-31T20:51:06.226Z,100589.47
2023-01-31T20:53:33.380Z,100579.44
2023-01-31T20:56:05.767Z,100578.00
2023-01-31T20:58:35.046Z,100567.50
2023-01-31T21:01:05.425Z,100560.88
2023-01-31T21:03:33.364Z,100558.69
2023-01-31T21:06:00.792Z,100562.47
2023-01-31T21:08:28.618Z,100561.88
2023-01-31T21:10:57.463Z,100555.78
2023-01-31T21:13:27.915Z,100556.69
2023-01-31T21:15:56.813Z,100549.53
2023-01-31T21:18:26.259Z,100549.75
2023-01-31T21:20:52.849Z,100555.94
2023-01-31T21:23:19.473Z,100543.84
2023-01-31T21:25:46.064Z,100544.06
2023-01-31T21:28:12.645Z,100528.19
2023-01-31T21:30:39.291Z,100530.47
2023-01-31T21:33:05.967Z,100528.13
2023-01-31T21:35:32.675Z,100531.66
2023-01-31T21:37:59.277Z,100529.16
2023-01-31T21:40:25.954Z,100537.44
2023-01-31T21:42:54.133Z,100532.13
2023-01-31T21:45:39.777Z,100531.28
2023-01-31T21:48:29.179Z,100531.19
2023-01-31T21:50:56.850Z,100522.81
2023-01-31T21:53:23.505Z,100527.19
2023-01-31T21:55:50.114Z,100524.53
2023-01-31T21:58:18.768Z,100530.47
2023-01-31T22:00:45.403Z,100532.91
2023-01-31T22:03:12.032Z,100529.78
2023-01-31T22:05:38.683Z,100529.00
2023-01-31T22:08:05.455Z,100532.59
2023-01-31T22:10:32.310Z,100529.78
2023-01-31T22:12:58.917Z,100529.78
2023-01-31T22:15:25.545Z,100520.72
2023-01-31T22:17:52.740Z,100519.78
2023-01-31T22:20:19.622Z,100512.56
2023-01-31T22:22:47.159Z,100510.72
2023-01-31T22:25:13.935Z,100514.31
2023-01-31T22:27:40.621Z,100529.25
2023-01-31T22:30:16.237Z,100530.94
2023-01-31T22:32:43.598Z,100533.34
2023-01-31T22:35:10.492Z,100526.31
2023-01-31T22:37:37.185Z,100507.88
2023-01-31T22:40:04.110Z,100505.31
2023-01-31T22:42:30.738Z,100506.25
2023-01-31T22:44:57.259Z,100503.44
2023-01-31T22:47:24.611Z,100508.91
2023-01-31T22:49:51.418Z,100500.78
2023-01-31T22:52:18.025Z,100507.03
2023-01-31T22:54:44.613Z,100500.84
2023-01-31T22:57:11.216Z,100501.94
2023-01-31T22:59:37.791Z,100491.94
2023-01-31T23:02:04.516Z,100484.47
2023-01-31T23:04:31.127Z,100473.75
2023-01-31T23:06:57.732Z,100481.88
2023-01-31T23:09:24.410Z,100476.66
2023-01-31T23:11:50.950Z,100465.34
2023-01-31T23:14:17.548Z,100466.44
2023-01-31T23:17:02.292Z,100465.66
2023-01-31T23:19:28.939Z,100463.94
2023-01-31T23:21:55.524Z,100464.03
2023-01-31T23:24:22.162Z,100466.53
2023-01-31T23:26:48.895Z,100459.16
2023-01-31T23:29:15.635Z,100463.69
2023-01-31T23:31:42.345Z,100458.38
2023-01-31T23:34:08.994Z,100451.09
2023-01-31T23:36:35.654Z,100449.41
2023-01-31T23:39:02.295Z,100447.50
2023-01-31T23:41:28.963Z,100444.63
2023-01-31T23:43:55.601Z,100442.81
2023-01-31T23:46:22.214Z,100444.63
2023-01-31T23:48:48.823Z,100437.16
2023-01-31T23:51:15.392Z,100442.59
2023-01-31T23:53:41.972Z,100423.88
2023-01-31T23:56:08.561Z,100428.03
2023-01-31T23:58:35.142Z,100429.41
